sensor_id;sensor_type;location;lat;lon;timestamp;temperature;humidity
54516;DHT22;40422;45.892;4.738;2023-02-01T04:00:36;3.70;99.90
54516;DHT22;40422;45.892;4.738;2023-02-01T04:03:03;3.70;99.90
54516;DHT22;40422;45.892;4.738;2023-02-01T04:05:29;3.80;99.90
54516;DHT22;40422;45.892;4.738;2023-02-01T04:07:56;3.80;99.90
54516;DHT22;40422;45.892;4.738;2023-02-01T04:10:22;3.90;99.90
54516;DHT22;40422;45.892;4.738;2023-02-01T04:12:47;4.00;99.90
54516;DHT22;40422;45.892;4.738;2023-02-01T04:15:13;4.00;99.90
54516;DHT22;40422;45.892;4.738;2023-02-01T04:17:38;4.00;99.90
54516;DHT22;40422;45.892;4.738;2023-02-01T04:20:04;4.00;99.90
54516;DHT22;40422;45.892;4.738;2023-02-01T04:22:30;4.00;99.90
54516;DHT22;40422;45.892;4.738;2023-02-01T04:24:56;4.00;99.90
54516;DHT22;40422;45.892;4.738;2023-02-01T04:27:22;4.00;99.90
54516;DHT22;40422;45.892;4.738;2023-02-01T04:29:47;4.00;99.90
54516;DHT22;40422;45.892;4.738;2023-02-01T04:32:15;4.10;99.90
54516;DHT22;40422;45.892;4.738;2023-02-01T04:34:41;4.10;99.90
54516;DHT22;40422;45.892;4.738;2023-02-01T04:37:07;4.10;99.90
54516;DHT22;40422;45.892;4.738;2023-02-01T04:39:33;4.10;99.90
54516;DHT22;40422;45.892;4.738;2023-02-01T04:41:58;4.10;99.90
54516;DHT22;40422;45.892;4.738;2023-02-01T04:44:24;4.10;99.90
54516;DHT22;40422;45.892;4.738;2023-02-01T04:46:50;4.20;99.90
54516;DHT22;40422;45.892;4.738;2023-02-01T04:49:15;4.20;99.90
54516;DHT22;40422;45.892;4.738;2023-02-01T04:51:41;4.20;99.90
54516;DHT22;40422;45.892;4.738;2023-02-01T04:54:07;4.20;99.90
54516;DHT22;40422;45.892;4.738;2023-02-01T04:56:34;4.20;99.90
54516;DHT22;40422;45.892;4.738;2023-02-01T04:59:02;4.30;99.90
54516;DHT22;40422;45.892;4.738;2023-02-01T05:01:28;4.30;99.90
54516;DHT22;40422;45.892;4.738;2023-02-01T05:03:53;4.40;99.90
54516;DHT22;40422;45.892;4.738;2023-02-01T05:06:19;4.40;99.90
54516;DHT22;40422;45.892;4.738;2023-02-01T05:08:45;4.40;99.90
54516;DHT22;40422;45.892;4.738;2023-02-01T05:11:10;4.50;99.90
54516;DHT22;40422;45.892;4.738;2023-02-01T05:13:54;4.50;99.90
54516;DHT22;40422;45.892;4.738;2023-02-01T05:16:20;4.60;99.90
54516;DHT22;40422;45.892;4.738;2023-02-01T05:18:46;4.60;99.90
54516;DHT22;40422;45.892;4.738;2023-02-01T05:21:11;4.60;99.90
54516;DHT22;40422;45.892;4.738;2023-02-01T05:23:37;4.60;99.90
54516;DHT22;40422;45.892;4.738;2023-02-01T05:26:23;4.60;99.90
54516;DHT22;40422;45.892;4.738;2023-02-01T05:28:49;4.60;99.90
54516;DHT22;40422;45.892;4.738;2023-02-01T05:31:14;4.60;99.90
54516;DHT22;40422;45.892;4.738;2023-02-01T05:33:40;4.70;99.90
54516;DHT22;40422;45.892;4.738;2023-02-01T05:36:05;4.70;99.90
54516;DHT22;40422;45.892;4.738;2023-02-01T05:38:31;4.70;99.90
54516;DHT22;40422;45.892;4.738;2023-02-01T05:40:57;4.80;99.90
54516;DHT22;40422;45.892;4.738;2023-02-01T05:43:23;4.80;99.90
54516;DHT22;40422;45.892;4.738;2023-02-01T05:45:49;4.80;99.90
54516;DHT22;40422;45.892;4.738;2023-02-01T05:48:14;4.80;99.90
54516;DHT22;40422;45.892;4.738;2023-02-01T05:50:40;4.70;99.90
54516;DHT22;40422;45.892;4.738;2023-02-01T05:53:05;4.70;99.90
54516;DHT22;40422;45.892;4.738;2023-02-01T05:55:32;4.70;99.90
54516;DHT22;40422;45.892;4.738;2023-02-01T05:57:57;4.60;99.90
54516;DHT22;40422;45.892;4.738;2023-02-01T06:00:23;4.60;99.90
54516;DHT22;40422;45.892;4.738;2023-02-01T06:02:49;4.60;99.90
54516;DHT22;40422;45.892;4.738;2023-02-01T06:05:14;4.60;99.90
54516;DHT22;40422;45.892;4.738;2023-02-01T06:07:40;4.60;99.90
54516;DHT22;40422;45.892;4.738;2023-02-01T06:10:06;4.60;99.90
54516;DHT22;40422;45.892;4.738;2023-02-01T06:12:32;4.60;99.90
54516;DHT22;40422;45.892;4.738;2023-02-01T06:14:57;4.60;99.90
54516;DHT22;40422;45.892;4.738;2023-02-01T06:17:24;4.70;99.90
54516;DHT22;40422;45.892;4.738;2023-02-01T06:19:50;4.70;99.90
54516;DHT22;40422;45.892;4.738;2023-02-01T06:22:16;4.70;99.90
54516;DHT22;40422;45.892;4.738;2023-02-01T06:24:42;4.70;99.90
54516;DHT22;40422;45.892;4.738;2023-02-01T06:27:07;4.80;99.90
54516;DHT22;40422;45.892;4.738;2023-02-01T06:29:35;4.80;99.90
54516;DHT22;40422;45.892;4.738;2023-02-01T06:32:00;4.80;99.90
54516;DHT22;40422;45.892;4.738;2023-02-01T06:34:26;4.80;99.90
54516;DHT22;40422;45.892;4.738;2023-02-01T06:36:52;5.00;99.90
54516;DHT22;40422;45.892;4.738;2023-02-01T06:39:17;5.10;99.90
54516;DHT22;40422;45.892;4.738;2023-02-01T06:41:47;5.20;99.90
54516;DHT22;40422;45.892;4.738;2023-02-01T06:44:13;5.20;99.90
54516;DHT22;40422;45.892;4.738;2023-02-01T06:46:38;5.20;99.90
54516;DHT22;40422;45.892;4.738;2023-02-01T06:49:04;5.20;99.90
54516;DHT22;40422;45.892;4.738;2023-02-01T06:51:29;5.00;99.90
54516;DHT22;40422;45.892;4.738;2023-02-01T06:53:55;5.00;99.90
54516;DHT22;40422;45.892;4.738;2023-02-01T06:56:22;5.00;99.90
54516;DHT22;40422;45.892;4.738;2023-02-01T06:58:48;5.00;99.90
54516;DHT22;40422;45.892;4.738;2023-02-01T07:01:14;5.00;99.90
54516;DHT22;40422;45.892;4.738;2023-02-01T07:03:40;5.00;99.90
54516;DHT22;40422;45.892;4.738;2023-02-01T07:06:06;5.00;99.90
54516;DHT22;40422;45.892;4.738;2023-02-01T07:08:34;5.00;99.90
54516;DHT22;40422;45.892;4.738;2023-02-01T07:11:07;5.00;99.90
54516;DHT22;40422;45.892;4.738;2023-02-01T07:13:34;5.00;99.90
54516;DHT22;40422;45.892;4.738;2023-02-01T07:16:04;5.00;99.90
54516;DHT22;40422;45.892;4.738;2023-02-01T07:18:31;5.00;99.90
54516;DHT22;40422;45.892;4.738;2023-02-01T07:20:57;5.00;99.90
54516;DHT22;40422;45.892;4.738;2023-02-01T07:23:23;5.10;99.90
54516;DHT22;40422;45.892;4.738;2023-02-01T07:25:52;5.10;99.90
54516;DHT22;40422;45.892;4.738;2023-02-01T07:28:18;5.10;99.90
54516;DHT22;40422;45.892;4.738;2023-02-01T07:30:44;5.10;99.90
54516;DHT22;40422;45.892;4.738;2023-02-01T07:33:22;5.20;99.90
54516;DHT22;40422;45.892;4.738;2023-02-01T07:35:49;5.30;99.90
54516;DHT22;40422;45.892;4.738;2023-02-01T07:38:15;5.50;99.90
54516;DHT22;40422;45.892;4.738;2023-02-01T07:40:41;5.70;99.90
54516;DHT22;40422;45.892;4.738;2023-02-01T07:43:07;5.60;99.90
54516;DHT22;40422;45.892;4.738;2023-02-01T07:45:34;5.60;99.90
54516;DHT22;40422;45.892;4.738;2023-02-01T07:48:00;5.60;99.90
54516;DHT22;40422;45.892;4.738;2023-02-01T07:50:25;5.60;99.90
54516;DHT22;40422;45.892;4.738;2023-02-01T07:52:51;5.70;99.90
54516;DHT22;40422;45.892;4.738;2023-02-01T07:55:19;5.80;99.90
54516;DHT22;40422;45.892;4.738;2023-02-01T07:57:44;5.80;99.90
54516;DHT22;40422;45.892;4.738;2023-02-01T08:00:10;5.90;99.90
54516;DHT22;40422;45.892;4.738;2023-02-01T08:02:58;6.00;99.90
54516;DHT22;40422;45.892;4.738;2023-02-01T08:05:24;6.00;99.90
54516;DHT22;40422;45.892;4.738;2023-02-01T08:07:49;6.10;99.90
54516;DHT22;40422;45.892;4.738;2023-02-01T08:10:16;6.10;99.90
54516;DHT22;40422;45.892;4.738;2023-02-01T08:12:41;6.10;99.90
54516;DHT22;40422;45.892;4.738;2023-02-01T08:15:07;6.20;99.90
54516;DHT22;40422;45.892;4.738;2023-02-01T08:17:33;6.20;99.90
54516;DHT22;40422;45.892;4.738;2023-02-01T08:19:59;6.20;99.90
54516;DHT22;40422;45.892;4.738;2023-02-01T08:22:24;6.30;99.90
54516;DHT22;40422;45.892;4.738;2023-02-01T08:24:50;6.40;99.90
54516;DHT22;40422;45.892;4.738;2023-02-01T08:27:17;6.50;99.90
54516;DHT22;40422;45.892;4.738;2023-02-01T08:29:42;6.50;99.90
54516;DHT22;40422;45.892;4.738;2023-02-01T08:32:08;6.60;99.90
54516;DHT22;40422;45.892;4.738;2023-02-01T08:34:34;6.70;99.90
54516;DHT22;40422;45.892;4.738;2023-02-01T08:36:59;6.80;99.90
54516;DHT22;40422;45.892;4.738;2023-02-01T08:39:26;6.90;99.90
54516;DHT22;40422;45.892;4.738;2023-02-01T08:41:51;7.00;99.90
54516;DHT22;40422;45.892;4.738;2023-02-01T08:44:36;7.10;99.90
54516;DHT22;40422;45.892;4.738;2023-02-01T08:47:02;7.20;99.90
54516;DHT22;40422;45.892;4.738;2023-02-01T08:49:28;7.20;99.90
54516;DHT22;40422;45.892;4.738;2023-02-01T08:51:54;7.20;99.90
54516;DHT22;40422;45.892;4.738;2023-02-01T08:54:21;7.30;99.90
54516;DHT22;40422;45.892;4.738;2023-02-01T08:56:47;7.30;99.90
54516;DHT22;40422;45.892;4.738;2023-02-01T08:59:13;7.30;99.90
54516;DHT22;40422;45.892;4.738;2023-02-01T09:01:38;7.40;99.90
54516;DHT22;40422;45.892;4.738;2023-02-01T09:04:04;7.50;99.90
54516;DHT22;40422;45.892;4.738;2023-02-01T09:06:30;7.50;99.90
54516;DHT22;40422;45.892;4.738;2023-02-01T09:08:55;7.60;99.90
54516;DHT22;40422;45.892;4.738;2023-02-01T09:11:21;7.70;99.90
54516;DHT22;40422;45.892;4.738;2023-02-01T09:13:47;7.70;99.90
54516;DHT22;40422;45.892;4.738;2023-02-01T09:16:14;7.70;99.90
54516;DHT22;40422;45.892;4.738;2023-02-01T09:18:40;7.80;99.90
54516;DHT22;40422;45.892;4.738;2023-02-01T09:21:08;7.80;99.90
54516;DHT22;40422;45.892;4.738;2023-02-01T09:23:34;7.80;99.90
54516;DHT22;40422;45.892;4.738;2023-02-01T09:26:04;7.90;99.90
54516;DHT22;40422;45.892;4.738;2023-02-01T09:28:30;7.90;99.90
54516;DHT22;40422;45.892;4.738;2023-02-01T09:31:00;8.00;99.90
54516;DHT22;40422;45.892;4.738;2023-02-01T09:33:27;8.00;99.90
54516;DHT22;40422;45.892;4.738;2023-02-01T09:35:57;8.10;99.90
54516;DHT22;40422;45.892;4.738;2023-02-01T09:38:23;8.30;99.90
54516;DHT22;40422;45.892;4.738;2023-02-01T09:40:51;8.40;99.90
54516;DHT22;40422;45.892;4.738;2023-02-01T09:48:32;8.70;99.90
54516;DHT22;40422;45.892;4.738;2023-02-01T09:50:59;8.80;99.90
54516;DHT22;40422;45.892;4.738;2023-02-01T09:53:46;8.80;99.90
54516;DHT22;40422;45.892;4.738;2023-02-01T09:56:18;8.80;99.90
54516;DHT22;40422;45.892;4.738;2023-02-01T10:01:28;8.90;99.90
54516;DHT22;40422;45.892;4.738;2023-02-01T10:04:03;9.00;99.90
54516;DHT22;40422;45.892;4.738;2023-02-01T10:22:46;9.70;99.90
54516;DHT22;40422;45.892;4.738;2023-02-01T10:25:22;9.60;99.90
54516;DHT22;40422;45.892;4.738;2023-02-01T10:27:49;9.60;99.90
54516;DHT22;40422;45.892;4.738;2023-02-01T10:30:27;9.70;99.90
54516;DHT22;40422;45.892;4.738;2023-02-01T10:32:57;9.80;99.90
54516;DHT22;40422;45.892;4.738;2023-02-01T10:35:33;9.80;99.90
54516;DHT22;40422;45.892;4.738;2023-02-01T10:38:02;9.80;99.90
54516;DHT22;40422;45.892;4.738;2023-02-01T10:40:31;9.90;99.90
54516;DHT22;40422;45.892;4.738;2023-02-01T10:43:01;9.90;99.90
54516;DHT22;40422;45.892;4.738;2023-02-01T10:45:29;10.00;99.90
54516;DHT22;40422;45.892;4.738;2023-02-01T10:47:57;10.10;99.90
54516;DHT22;40422;45.892;4.738;2023-02-01T10:50:37;10.20;99.90
54516;DHT22;40422;45.892;4.738;2023-02-01T10:53:17;10.30;99.90
54516;DHT22;40422;45.892;4.738;2023-02-01T10:55:50;10.40;99.90
54516;DHT22;40422;45.892;4.738;2023-02-01T10:58:28;10.50;99.90
54516;DHT22;40422;45.892;4.738;2023-02-01T11:00:58;10.50;99.90
54516;DHT22;40422;45.892;4.738;2023-02-01T11:08:42;10.60;99.90
54516;DHT22;40422;45.892;4.738;2023-02-01T11:11:10;10.70;99.90
54516;DHT22;40422;45.892;4.738;2023-02-01T11:13:38;10.70;99.90
54516;DHT22;40422;45.892;4.738;2023-02-01T11:16:05;10.80;99.90
54516;DHT22;40422;45.892;4.738;2023-02-01T11:18:35;10.80;99.90
54516;DHT22;40422;45.892;4.738;2023-02-01T11:21:02;10.80;99.90
54516;DHT22;40422;45.892;4.738;2023-02-01T11:23:29;10.80;99.90
54516;DHT22;40422;45.892;4.738;2023-02-01T11:25:58;10.70;99.90
54516;DHT22;40422;45.892;4.738;2023-02-01T11:28:32;10.70;99.90
54516;DHT22;40422;45.892;4.738;2023-02-01T11:31:02;10.70;99.90
54516;DHT22;40422;45.892;4.738;2023-02-01T11:33:34;10.70;99.90
54516;DHT22;40422;45.892;4.738;2023-02-01T11:36:09;10.90;99.90
54516;DHT22;40422;45.892;4.738;2023-02-01T11:38:36;10.90;99.90
54516;DHT22;40422;45.892;4.738;2023-02-01T11:41:21;11.00;99.90
54516;DHT22;40422;45.892;4.738;2023-02-01T11:43:52;11.00;99.90
54516;DHT22;40422;45.892;4.738;2023-02-01T11:46:19;11.20;99.90
54516;DHT22;40422;45.892;4.738;2023-02-01T11:48:51;11.30;99.90
54516;DHT22;40422;45.892;4.738;2023-02-01T11:51:37;11.40;99.90
54516;DHT22;40422;45.892;4.738;2023-02-01T11:54:16;11.70;99.90
54516;DHT22;40422;45.892;4.738;2023-02-01T12:02:23;12.70;99.90
54516;DHT22;40422;45.892;4.738;2023-02-01T12:10:28;13.30;99.90
54516;DHT22;40422;45.892;4.738;2023-02-01T12:29:53;11.50;99.90
54516;DHT22;40422;45.892;4.738;2023-02-01T12:40:48;10.40;99.90
54516;DHT22;40422;45.892;4.738;2023-02-01T12:46:04;10.10;99.90
54516;DHT22;40422;45.892;4.738;2023-02-01T12:48:37;10.10;99.90
54516;DHT22;40422;45.892;4.738;2023-02-01T12:51:12;10.00;99.90
54516;DHT22;40422;45.892;4.738;2023-02-01T12:56:25;10.10;99.90
54516;DHT22;40422;45.892;4.738;2023-02-01T12:58:53;10.20;99.90
54516;DHT22;40422;45.892;4.738;2023-02-01T13:04:23;10.40;99.90
54516;DHT22;40422;45.892;4.738;2023-02-01T13:07:03;10.40;99.90
54516;DHT22;40422;45.892;4.738;2023-02-01T13:12:22;10.30;99.90
54516;DHT22;40422;45.892;4.738;2023-02-01T13:15:04;10.10;99.90
54516;DHT22;40422;45.892;4.738;2023-02-01T13:17:35;10.00;99.90
54516;DHT22;40422;45.892;4.738;2023-02-01T13:20:29;9.80;99.90
54516;DHT22;40422;45.892;4.738;2023-02-01T13:23:08;9.70;99.90
54516;DHT22;40422;45.892;4.738;2023-02-01T13:25:47;9.60;99.90
54516;DHT22;40422;45.892;4.738;2023-02-01T13:36:03;9.60;99.90
54516;DHT22;40422;45.892;4.738;2023-02-01T13:38:49;9.60;99.90
54516;DHT22;40422;45.892;4.738;2023-02-01T13:41:39;9.50;99.90
54516;DHT22;40422;45.892;4.738;2023-02-01T13:44:13;9.50;99.90
54516;DHT22;40422;45.892;4.738;2023-02-01T13:46:44;9.60;99.90
54516;DHT22;40422;45.892;4.738;2023-02-01T13:49:21;9.60;99.90
54516;DHT22;40422;45.892;4.738;2023-02-01T13:51:49;9.60;99.90
54516;DHT22;40422;45.892;4.738;2023-02-01T13:54:38;9.50;99.90
54516;DHT22;40422;45.892;4.738;2023-02-01T13:57:06;9.40;99.90
54516;DHT22;40422;45.892;4.738;2023-02-01T14:02:36;9.50;99.90
54516;DHT22;40422;45.892;4.738;2023-02-01T14:05:04;9.40;99.90
54516;DHT22;40422;45.892;4.738;2023-02-01T14:07:30;9.30;99.90
54516;DHT22;40422;45.892;4.738;2023-02-01T14:09:56;9.30;99.90
54516;DHT22;40422;45.892;4.738;2023-02-01T14:12:46;9.30;99.90
54516;DHT22;40422;45.892;4.738;2023-02-01T14:15:26;9.20;99.90
54516;DHT22;40422;45.892;4.738;2023-02-01T14:17:53;9.20;99.90
54516;DHT22;40422;45.892;4.738;2023-02-01T14:20:40;9.20;99.90
54516;DHT22;40422;45.892;4.738;2023-02-01T14:23:16;9.20;99.90
54516;DHT22;40422;45.892;4.738;2023-02-01T14:25:43;9.20;99.90
54516;DHT22;40422;45.892;4.738;2023-02-01T14:28:23;9.10;99.90
54516;DHT22;40422;45.892;4.738;2023-02-01T14:30:50;9.10;99.90
54516;DHT22;40422;45.892;4.738;2023-02-01T14:33:21;9.00;99.90
54516;DHT22;40422;45.892;4.738;2023-02-01T14:36:04;9.00;99.90
54516;DHT22;40422;45.892;4.738;2023-02-01T14:38:32;9.10;99.90
54516;DHT22;40422;45.892;4.738;2023-02-01T14:41:17;9.10;99.90
54516;DHT22;40422;45.892;4.738;2023-02-01T14:47:02;9.20;99.90
54516;DHT22;40422;45.892;4.738;2023-02-01T14:49:32;9.20;99.90
54516;DHT22;40422;45.892;4.738;2023-02-01T14:51:59;9.20;99.90
54516;DHT22;40422;45.892;4.738;2023-02-01T14:54:25;9.30;99.90
54516;DHT22;40422;45.892;4.738;2023-02-01T14:56:53;9.30;99.90
54516;DHT22;40422;45.892;4.738;2023-02-01T14:59:21;9.30;99.90
54516;DHT22;40422;45.892;4.738;2023-02-01T15:01:55;9.30;99.90
54516;DHT22;40422;45.892;4.738;2023-02-01T15:04:25;9.30;99.90
54516;DHT22;40422;45.892;4.738;2023-02-01T15:09:37;9.20;99.90
54516;DHT22;40422;45.892;4.738;2023-02-01T15:14:46;9.10;99.90
54516;DHT22;40422;45.892;4.738;2023-02-01T15:17:25;9.10;99.90
54516;DHT22;40422;45.892;4.738;2023-02-01T15:19:58;9.10;99.90
54516;DHT22;40422;45.892;4.738;2023-02-01T15:22:24;9.00;99.90
54516;DHT22;40422;45.892;4.738;2023-02-01T15:24:58;8.90;99.90
54516;DHT22;40422;45.892;4.738;2023-02-01T15:27:26;8.90;99.90
54516;DHT22;40422;45.892;4.738;2023-02-01T15:29:52;8.80;99.90
54516;DHT22;40422;45.892;4.738;2023-02-01T15:34:58;8.80;99.90
54516;DHT22;40422;45.892;4.738;2023-02-01T15:37:23;8.70;99.90
54516;DHT22;40422;45.892;4.738;2023-02-01T15:45:19;8.80;99.90
54516;DHT22;40422;45.892;4.738;2023-02-01T15:47:50;8.70;99.90
54516;DHT22;40422;45.892;4.738;2023-02-01T15:50:18;8.70;99.90
54516;DHT22;40422;45.892;4.738;2023-02-01T15:52:46;8.70;99.90
54516;DHT22;40422;45.892;4.738;2023-02-01T15:55:38;8.50;99.90
54516;DHT22;40422;45.892;4.738;2023-02-01T15:58:06;8.50;99.90
54516;DHT22;40422;45.892;4.738;2023-02-01T16:00:43;8.30;99.90
54516;DHT22;40422;45.892;4.738;2023-02-01T16:03:27;8.30;99.90
54516;DHT22;40422;45.892;4.738;2023-02-01T16:05:58;8.30;99.90
54516;DHT22;40422;45.892;4.738;2023-02-01T16:08:28;8.30;99.90
54516;DHT22;40422;45.892;4.738;2023-02-01T16:13:35;8.30;99.90
54516;DHT22;40422;45.892;4.738;2023-02-01T16:16:01;8.20;99.90
54516;DHT22;40422;45.892;4.738;2023-02-01T16:18:27;8.20;99.90
54516;DHT22;40422;45.892;4.738;2023-02-01T16:20:54;8.30;99.90
54516;DHT22;40422;45.892;4.738;2023-02-01T16:23:21;8.20;99.90
54516;DHT22;40422;45.892;4.738;2023-02-01T16:25:51;8.20;99.90
54516;DHT22;40422;45.892;4.738;2023-02-01T16:28:17;8.10;99.90
54516;DHT22;40422;45.892;4.738;2023-02-01T16:30:44;8.10;99.90
54516;DHT22;40422;45.892;4.738;2023-02-01T16:33:13;8.00;99.90
54516;DHT22;40422;45.892;4.738;2023-02-01T16:35:41;7.90;99.90
54516;DHT22;40422;45.892;4.738;2023-02-01T16:38:12;7.80;99.90
54516;DHT22;40422;45.892;4.738;2023-02-01T16:40:39;7.70;99.90
54516;DHT22;40422;45.892;4.738;2023-02-01T16:43:18;7.60;99.90
54516;DHT22;40422;45.892;4.738;2023-02-01T16:45:45;7.40;99.90
54516;DHT22;40422;45.892;4.738;2023-02-01T16:50:54;7.20;99.90
54516;DHT22;40422;45.892;4.738;2023-02-01T16:53:21;7.10;99.90
54516;DHT22;40422;45.892;4.738;2023-02-01T16:55:47;7.00;99.90
54516;DHT22;40422;45.892;4.738;2023-02-01T16:58:16;7.00;99.90
54516;DHT22;40422;45.892;4.738;2023-02-01T17:00:42;7.00;99.90
54516;DHT22;40422;45.892;4.738;2023-02-01T17:03:10;6.90;99.90
54516;DHT22;40422;45.892;4.738;2023-02-01T17:05:43;6.90;99.90
54516;DHT22;40422;45.892;4.738;2023-02-01T17:08:13;6.90;99.90
54516;DHT22;40422;45.892;4.738;2023-02-01T17:10:40;6.80;99.90
54516;DHT22;40422;45.892;4.738;2023-02-01T17:13:11;6.80;99.90
54516;DHT22;40422;45.892;4.738;2023-02-01T17:15:37;6.70;99.90
54516;DHT22;40422;45.892;4.738;2023-02-01T17:18:03;6.60;99.90
54516;DHT22;40422;45.892;4.738;2023-02-01T17:20:31;6.60;99.90
54516;DHT22;40422;45.892;4.738;2023-02-01T17:22:57;6.60;99.90
54516;DHT22;40422;45.892;4.738;2023-02-01T17:25:30;6.60;99.90
54516;DHT22;40422;45.892;4.738;2023-02-01T17:27:56;6.60;99.90
54516;DHT22;40422;45.892;4.738;2023-02-01T17:30:21;6.60;99.90
54516;DHT22;40422;45.892;4.738;2023-02-01T17:32:47;6.60;99.90
54516;DHT22;40422;45.892;4.738;2023-02-01T17:35:20;6.60;99.90
54516;DHT22;40422;45.892;4.738;2023-02-01T17:37:46;6.60;99.90
54516;DHT22;40422;45.892;4.738;2023-02-01T17:40:12;6.70;99.90
54516;DHT22;40422;45.892;4.738;2023-02-01T17:42:38;6.70;99.90
54516;DHT22;40422;45.892;4.738;2023-02-01T17:47:58;6.70;99.90
54516;DHT22;40422;45.892;4.738;2023-02-01T17:50:26;6.70;99.90
54516;DHT22;40422;45.892;4.738;2023-02-01T17:52:53;6.70;99.90
54516;DHT22;40422;45.892;4.738;2023-02-01T17:55:20;6.70;99.90
54516;DHT22;40422;45.892;4.738;2023-02-01T17:57:47;6.70;99.90
54516;DHT22;40422;45.892;4.738;2023-02-01T18:00:14;6.70;99.90
54516;DHT22;40422;45.892;4.738;2023-02-01T18:02:40;6.70;99.90
54516;DHT22;40422;45.892;4.738;2023-02-01T18:05:25;6.70;99.90
54516;DHT22;40422;45.892;4.738;2023-02-01T18:07:52;6.70;99.90
54516;DHT22;40422;45.892;4.738;2023-02-01T18:10:18;6.70;99.90
54516;DHT22;40422;45.892;4.738;2023-02-01T18:12:44;6.70;99.90
54516;DHT22;40422;45.892;4.738;2023-02-01T18:15:19;6.80;99.90
54516;DHT22;40422;45.892;4.738;2023-02-01T18:17:45;6.80;99.90
54516;DHT22;40422;45.892;4.738;2023-02-01T18:20:16;6.80;99.90
54516;DHT22;40422;45.892;4.738;2023-02-01T18:22:43;6.90;99.90
54516;DHT22;40422;45.892;4.738;2023-02-01T18:25:18;6.90;99.90
54516;DHT22;40422;45.892;4.738;2023-02-01T18:27:46;6.90;99.90
54516;DHT22;40422;45.892;4.738;2023-02-01T18:30:12;6.90;99.90
54516;DHT22;40422;45.892;4.738;2023-02-01T18:32:38;7.00;99.90
54516;DHT22;40422;45.892;4.738;2023-02-01T18:35:20;7.00;99.90
54516;DHT22;40422;45.892;4.738;2023-02-01T18:37:46;7.00;99.90
54516;DHT22;40422;45.892;4.738;2023-02-01T18:40:19;6.90;99.90
54516;DHT22;40422;45.892;4.738;2023-02-01T18:42:45;6.90;99.90
54516;DHT22;40422;45.892;4.738;2023-02-01T18:45:20;6.90;99.90
54516;DHT22;40422;45.892;4.738;2023-02-01T18:47:47;6.90;99.90
54516;DHT22;40422;45.892;4.738;2023-02-01T18:50:13;6.90;99.90
54516;DHT22;40422;45.892;4.738;2023-02-01T18:52:39;6.90;99.90
54516;DHT22;40422;45.892;4.738;2023-02-01T18:55:05;7.00;99.90
54516;DHT22;40422;45.892;4.738;2023-02-01T18:57:30;7.00;99.90
54516;DHT22;40422;45.892;4.738;2023-02-01T18:59:57;7.00;99.90
54516;DHT22;40422;45.892;4.738;2023-02-01T19:02:23;7.00;99.90
54516;DHT22;40422;45.892;4.738;2023-02-01T19:04:49;7.00;99.90
54516;DHT22;40422;45.892;4.738;2023-02-01T19:07:14;7.00;99.90
54516;DHT22;40422;45.892;4.738;2023-02-01T19:09:40;7.00;99.90
54516;DHT22;40422;45.892;4.738;2023-02-01T19:12:05;7.00;99.90
54516;DHT22;40422;45.892;4.738;2023-02-01T19:14:31;7.00;99.90
54516;DHT22;40422;45.892;4.738;2023-02-01T19:16:56;7.00;99.90
54516;DHT22;40422;45.892;4.738;2023-02-01T19:19:23;7.00;99.90
54516;DHT22;40422;45.892;4.738;2023-02-01T19:21:49;7.00;99.90
54516;DHT22;40422;45.892;4.738;2023-02-01T19:24:15;7.00;99.90
54516;DHT22;40422;45.892;4.738;2023-02-01T19:26:41;7.00;99.90
54516;DHT22;40422;45.892;4.738;2023-02-01T19:29:08;7.00;99.90
54516;DHT22;40422;45.892;4.738;2023-02-01T19:31:34;6.90;99.90
54516;DHT22;40422;45.892;4.738;2023-02-01T19:34:00;6.90;99.90
54516;DHT22;40422;45.892;4.738;2023-02-01T19:36:26;6.80;99.90
54516;DHT22;40422;45.892;4.738;2023-02-01T19:38:52;6.80;99.90
54516;DHT22;40422;45.892;4.738;2023-02-01T19:41:18;6.80;99.90
54516;DHT22;40422;45.892;4.738;2023-02-01T19:43:44;6.70;99.90
54516;DHT22;40422;45.892;4.738;2023-02-01T19:46:10;6.80;99.90
54516;DHT22;40422;45.892;4.738;2023-02-01T19:48:36;6.70;99.90
54516;DHT22;40422;45.892;4.738;2023-02-01T19:51:02;6.70;99.90
54516;DHT22;40422;45.892;4.738;2023-02-01T19:53:29;6.70;99.90
54516;DHT22;40422;45.892;4.738;2023-02-01T19:55:56;6.70;99.90
54516;DHT22;40422;45.892;4.738;2023-02-01T19:58:23;6.70;99.90
54516;DHT22;40422;45.892;4.738;2023-02-01T20:00:52;6.80;99.90
54516;DHT22;40422;45.892;4.738;2023-02-01T20:03:19;6.80;99.90
54516;DHT22;40422;45.892;4.738;2023-02-01T20:05:44;6.80;99.90
54516;DHT22;40422;45.892;4.738;2023-02-01T20:08:10;6.80;99.90
54516;DHT22;40422;45.892;4.738;2023-02-01T20:10:42;6.70;99.90
54516;DHT22;40422;45.892;4.738;2023-02-01T20:13:09;6.70;99.90
54516;DHT22;40422;45.892;4.738;2023-02-01T20:15:34;6.70;99.90
54516;DHT22;40422;45.892;4.738;2023-02-01T20:18:00;6.70;99.90
54516;DHT22;40422;45.892;4.738;2023-02-01T20:20:26;6.70;99.90
54516;DHT22;40422;45.892;4.738;2023-02-01T20:22:53;6.70;99.90
54516;DHT22;40422;45.892;4.738;2023-02-01T20:25:19;6.60;99.90
54516;DHT22;40422;45.892;4.738;2023-02-01T20:27:44;6.60;99.90
54516;DHT22;40422;45.892;4.738;2023-02-01T20:30:10;6.70;99.90
54516;DHT22;40422;45.892;4.738;2023-02-01T20:32:38;6.60;99.90
54516;DHT22;40422;45.892;4.738;2023-02-01T20:35:04;6.60;99.90
54516;DHT22;40422;45.892;4.738;2023-02-01T20:37:31;6.70;99.90
54516;DHT22;40422;45.892;4.738;2023-02-01T20:39:56;6.70;99.90
54516;DHT22;40422;45.892;4.738;2023-02-01T20:42:22;6.60;99.90
54516;DHT22;40422;45.892;4.738;2023-02-01T20:44:47;6.70;99.90
54516;DHT22;40422;45.892;4.738;2023-02-01T20:47:13;6.60;99.90
54516;DHT22;40422;45.892;4.738;2023-02-01T20:49:38;6.70;99.90
54516;DHT22;40422;45.892;4.738;2023-02-01T20:52:05;6.60;99.90
54516;DHT22;40422;45.892;4.738;2023-02-01T20:54:30;6.70;99.90
54516;DHT22;40422;45.892;4.738;2023-02-01T20:56:56;6.60;99.90
54516;DHT22;40422;45.892;4.738;2023-02-01T20:59:22;6.60;99.90
